sensor_id;sensor_type;location;lat;lon;timestamp;P1;durP1;ratioP1;P2;durP2;ratioP2
71106;SDS011;58763;47.982;11.516;2022-08-03T00:01:29;2.38;;;1.15;;
71106;SDS011;58763;47.982;11.516;2022-08-03T00:03:54;3.15;;;1.30;;
71106;SDS011;58763;47.982;11.516;2022-08-03T00:06:19;3.67;;;1.50;;
71106;SDS011;58763;47.982;11.516;2022-08-03T00:08:45;3.25;;;1.10;;
71106;SDS011;58763;47.982;11.516;2022-08-03T00:11:10;3.33;;;1.30;;
71106;SDS011;58763;47.982;11.516;2022-08-03T00:13:36;5.38;;;1.23;;
71106;SDS011;58763;47.982;11.516;2022-08-03T00:16:01;2.60;;;1.30;;
71106;SDS011;58763;47.982;11.516;2022-08-03T00:18:27;2.75;;;1.20;;
71106;SDS011;58763;47.982;11.516;2022-08-03T00:20:52;3.72;;;1.40;;
71106;SDS011;58763;47.982;11.516;2022-08-03T00:23:17;3.38;;;1.48;;
71106;SDS011;58763;47.982;11.516;2022-08-03T00:25:43;2.65;;;1.25;;
71106;SDS011;58763;47.982;11.516;2022-08-03T00:28:08;2.17;;;0.98;;
71106;SDS011;58763;47.982;11.516;2022-08-03T00:30:34;2.70;;;1.20;;
71106;SDS011;58763;47.982;11.516;2022-08-03T00:33:00;2.63;;;1.10;;
71106;SDS011;58763;47.982;11.516;2022-08-03T00:35:26;3.90;;;1.48;;
71106;SDS011;58763;47.982;11.516;2022-08-03T00:37:52;2.42;;;1.00;;
71106;SDS011;58763;47.982;11.516;2022-08-03T00:40:18;2.20;;;1.00;;
71106;SDS011;58763;47.982;11.516;2022-08-03T00:42:47;3.75;;;1.50;;
71106;SDS011;58763;47.982;11.516;2022-08-03T00:45:19;3.75;;;1.27;;
71106;SDS011;58763;47.982;11.516;2022-08-03T00:47:46;3.90;;;1.35;;
71106;SDS011;58763;47.982;11.516;2022-08-03T00:50:12;3.28;;;1.25;;
71106;SDS011;58763;47.982;11.516;2022-08-03T00:52:37;2.63;;;1.20;;
71106;SDS011;58763;47.982;11.516;2022-08-03T00:55:03;2.50;;;1.20;;
71106;SDS011;58763;47.982;11.516;2022-08-03T00:57:29;2.97;;;1.05;;
71106;SDS011;58763;47.982;11.516;2022-08-03T00:59:56;3.92;;;1.27;;
71106;SDS011;58763;47.982;11.516;2022-08-03T01:02:24;2.80;;;1.30;;
71106;SDS011;58763;47.982;11.516;2022-08-03T01:04:50;3.03;;;1.10;;
71106;SDS011;58763;47.982;11.516;2022-08-03T01:10:00;3.15;;;1.20;;
71106;SDS011;58763;47.982;11.516;2022-08-03T01:12:58;3.28;;;1.10;;
71106;SDS011;58763;47.982;11.516;2022-08-03T01:18:30;4.25;;;1.13;;
71106;SDS011;58763;47.982;11.516;2022-08-03T01:21:00;3.95;;;1.30;;
71106;SDS011;58763;47.982;11.516;2022-08-03T01:32:02;2.25;;;1.20;;
71106;SDS011;58763;47.982;11.516;2022-08-03T01:34:35;4.38;;;1.60;;
71106;SDS011;58763;47.982;11.516;2022-08-03T01:37:12;3.20;;;1.48;;
71106;SDS011;58763;47.982;11.516;2022-08-03T01:39:43;3.10;;;1.30;;
71106;SDS011;58763;47.982;11.516;2022-08-03T01:42:09;3.95;;;1.42;;
71106;SDS011;58763;47.982;11.516;2022-08-03T01:44:37;4.22;;;1.20;;
71106;SDS011;58763;47.982;11.516;2022-08-03T01:47:06;2.83;;;1.30;;
71106;SDS011;58763;47.982;11.516;2022-08-03T01:49:34;2.65;;;1.20;;
71106;SDS011;58763;47.982;11.516;2022-08-03T01:52:03;2.40;;;1.13;;
71106;SDS011;58763;47.982;11.516;2022-08-03T01:54:34;3.28;;;1.33;;
71106;SDS011;58763;47.982;11.516;2022-08-03T01:57:02;3.78;;;1.63;;
71106;SDS011;58763;47.982;11.516;2022-08-03T01:59:28;2.65;;;1.05;;
71106;SDS011;58763;47.982;11.516;2022-08-03T02:01:56;3.65;;;1.27;;
71106;SDS011;58763;47.982;11.516;2022-08-03T02:04:24;3.72;;;1.60;;
71106;SDS011;58763;47.982;11.516;2022-08-03T02:06:50;7.07;;;2.08;;
71106;SDS011;58763;47.982;11.516;2022-08-03T02:09:19;5.35;;;2.15;;
71106;SDS011;58763;47.982;11.516;2022-08-03T02:11:46;4.00;;;2.00;;
71106;SDS011;58763;47.982;11.516;2022-08-03T02:14:13;3.75;;;1.88;;
71106;SDS011;58763;47.982;11.516;2022-08-03T02:16:40;4.13;;;1.40;;
71106;SDS011;58763;47.982;11.516;2022-08-03T02:19:08;3.42;;;1.48;;
71106;SDS011;58763;47.982;11.516;2022-08-03T02:21:36;2.65;;;1.40;;
71106;SDS011;58763;47.982;11.516;2022-08-03T02:24:02;2.90;;;1.38;;
71106;SDS011;58763;47.982;11.516;2022-08-03T02:26:29;2.90;;;1.33;;
71106;SDS011;58763;47.982;11.516;2022-08-03T02:28:57;2.78;;;1.33;;
71106;SDS011;58763;47.982;11.516;2022-08-03T02:31:32;3.28;;;1.05;;
71106;SDS011;58763;47.982;11.516;2022-08-03T02:34:02;2.95;;;1.50;;
71106;SDS011;58763;47.982;11.516;2022-08-03T02:36:34;2.90;;;1.40;;
71106;SDS011;58763;47.982;11.516;2022-08-03T02:39:03;2.38;;;1.00;;
71106;SDS011;58763;47.982;11.516;2022-08-03T02:41:34;2.88;;;1.20;;
71106;SDS011;58763;47.982;11.516;2022-08-03T02:44:03;2.90;;;1.30;;
71106;SDS011;58763;47.982;11.516;2022-08-03T02:46:33;2.45;;;1.13;;
71106;SDS011;58763;47.982;11.516;2022-08-03T02:49:02;2.73;;;1.30;;
71106;SDS011;58763;47.982;11.516;2022-08-03T02:51:29;2.55;;;1.27;;
71106;SDS011;58763;47.982;11.516;2022-08-03T02:54:02;2.83;;;1.25;;
71106;SDS011;58763;47.982;11.516;2022-08-03T02:56:29;3.33;;;1.63;;
71106;SDS011;58763;47.982;11.516;2022-08-03T02:58:55;2.58;;;1.17;;
71106;SDS011;58763;47.982;11.516;2022-08-03T03:01:23;3.42;;;1.15;;
71106;SDS011;58763;47.982;11.516;2022-08-03T03:03:50;3.25;;;1.25;;
71106;SDS011;58763;47.982;11.516;2022-08-03T03:06:18;2.42;;;1.20;;
71106;SDS011;58763;47.982;11.516;2022-08-03T03:08:45;2.35;;;1.02;;
71106;SDS011;58763;47.982;11.516;2022-08-03T03:11:12;2.35;;;1.00;;
71106;SDS011;58763;47.982;11.516;2022-08-03T03:13:40;2.90;;;0.98;;
71106;SDS011;58763;47.982;11.516;2022-08-03T03:16:08;3.15;;;1.30;;
71106;SDS011;58763;47.982;11.516;2022-08-03T03:18:35;3.25;;;1.20;;
71106;SDS011;58763;47.982;11.516;2022-08-03T03:21:02;4.43;;;1.35;;
71106;SDS011;58763;47.982;11.516;2022-08-03T03:23:29;2.60;;;1.02;;
71106;SDS011;58763;47.982;11.516;2022-08-03T03:25:56;3.03;;;1.30;;
71106;SDS011;58763;47.982;11.516;2022-08-03T03:28:23;2.70;;;1.50;;
71106;SDS011;58763;47.982;11.516;2022-08-03T03:30:49;2.25;;;1.05;;
71106;SDS011;58763;47.982;11.516;2022-08-03T03:33:14;2.90;;;1.50;;
71106;SDS011;58763;47.982;11.516;2022-08-03T03:35:40;2.63;;;1.27;;
71106;SDS011;58763;47.982;11.516;2022-08-03T03:38:08;3.10;;;1.40;;
71106;SDS011;58763;47.982;11.516;2022-08-03T03:40:33;3.83;;;1.67;;
71106;SDS011;58763;47.982;11.516;2022-08-03T03:42:59;3.80;;;1.33;;
71106;SDS011;58763;47.982;11.516;2022-08-03T03:45:25;2.38;;;1.27;;
71106;SDS011;58763;47.982;11.516;2022-08-03T03:47:51;3.45;;;1.38;;
71106;SDS011;58763;47.982;11.516;2022-08-03T03:50:17;3.03;;;1.30;;
71106;SDS011;58763;47.982;11.516;2022-08-03T03:52:44;2.67;;;1.40;;
71106;SDS011;58763;47.982;11.516;2022-08-03T03:55:11;3.20;;;1.50;;
71106;SDS011;58763;47.982;11.516;2022-08-03T03:57:40;3.22;;;1.30;;
71106;SDS011;58763;47.982;11.516;2022-08-03T04:00:06;3.22;;;1.50;;
71106;SDS011;58763;47.982;11.516;2022-08-03T04:02:31;3.58;;;1.42;;
71106;SDS011;58763;47.982;11.516;2022-08-03T04:04:57;2.78;;;1.50;;
71106;SDS011;58763;47.982;11.516;2022-08-03T04:07:45;3.35;;;1.50;;
71106;SDS011;58763;47.982;11.516;2022-08-03T04:10:36;3.08;;;1.60;;
71106;SDS011;58763;47.982;11.516;2022-08-03T04:13:25;3.17;;;1.23;;
71106;SDS011;58763;47.982;11.516;2022-08-03T04:15:54;3.72;;;1.63;;
71106;SDS011;58763;47.982;11.516;2022-08-03T04:18:21;3.65;;;1.40;;
71106;SDS011;58763;47.982;11.516;2022-08-03T04:20:49;2.95;;;1.30;;
71106;SDS011;58763;47.982;11.516;2022-08-03T04:23:16;2.63;;;1.35;;
71106;SDS011;58763;47.982;11.516;2022-08-03T04:25:46;2.97;;;1.52;;
71106;SDS011;58763;47.982;11.516;2022-08-03T04:28:14;3.95;;;1.70;;
71106;SDS011;58763;47.982;11.516;2022-08-03T04:30:40;3.00;;;1.60;;
71106;SDS011;58763;47.982;11.516;2022-08-03T04:33:12;3.63;;;1.70;;
71106;SDS011;58763;47.982;11.516;2022-08-03T04:35:40;3.13;;;1.42;;
71106;SDS011;58763;47.982;11.516;2022-08-03T04:38:08;4.03;;;1.42;;
71106;SDS011;58763;47.982;11.516;2022-08-03T04:40:39;2.97;;;1.50;;
71106;SDS011;58763;47.982;11.516;2022-08-03T04:43:06;3.47;;;1.50;;
71106;SDS011;58763;47.982;11.516;2022-08-03T04:45:34;3.00;;;1.30;;
71106;SDS011;58763;47.982;11.516;2022-08-03T04:48:00;3.08;;;1.52;;
71106;SDS011;58763;47.982;11.516;2022-08-03T04:50:26;3.03;;;1.38;;
71106;SDS011;58763;47.982;11.516;2022-08-03T04:52:52;2.75;;;1.50;;
71106;SDS011;58763;47.982;11.516;2022-08-03T04:55:25;3.92;;;1.67;;
71106;SDS011;58763;47.982;11.516;2022-08-03T04:57:52;2.67;;;1.30;;
71106;SDS011;58763;47.982;11.516;2022-08-03T05:00:17;2.78;;;1.55;;
71106;SDS011;58763;47.982;11.516;2022-08-03T05:02:43;4.18;;;1.50;;
71106;SDS011;58763;47.982;11.516;2022-08-03T05:05:08;2.85;;;1.30;;
71106;SDS011;58763;47.982;11.516;2022-08-03T05:07:34;3.25;;;1.40;;
71106;SDS011;58763;47.982;11.516;2022-08-03T05:09:59;5.25;;;1.40;;
71106;SDS011;58763;47.982;11.516;2022-08-03T05:12:24;3.65;;;1.38;;
71106;SDS011;58763;47.982;11.516;2022-08-03T05:14:50;2.75;;;1.40;;
71106;SDS011;58763;47.982;11.516;2022-08-03T05:17:15;3.03;;;1.67;;
71106;SDS011;58763;47.982;11.516;2022-08-03T05:19:41;3.60;;;1.40;;
71106;SDS011;58763;47.982;11.516;2022-08-03T05:22:06;3.22;;;1.50;;
71106;SDS011;58763;47.982;11.516;2022-08-03T05:24:32;2.42;;;1.30;;
71106;SDS011;58763;47.982;11.516;2022-08-03T05:26:57;2.90;;;1.30;;
71106;SDS011;58763;47.982;11.516;2022-08-03T05:29:22;2.50;;;1.25;;
71106;SDS011;58763;47.982;11.516;2022-08-03T05:31:48;2.85;;;1.40;;
71106;SDS011;58763;47.982;11.516;2022-08-03T05:34:13;2.90;;;1.50;;
71106;SDS011;58763;47.982;11.516;2022-08-03T05:36:40;3.35;;;1.30;;
71106;SDS011;58763;47.982;11.516;2022-08-03T05:39:05;3.50;;;1.20;;
71106;SDS011;58763;47.982;11.516;2022-08-03T05:41:30;2.53;;;1.38;;
71106;SDS011;58763;47.982;11.516;2022-08-03T05:43:56;5.63;;;1.60;;
71106;SDS011;58763;47.982;11.516;2022-08-03T05:46:22;3.13;;;1.20;;
71106;SDS011;58763;47.982;11.516;2022-08-03T05:48:47;4.60;;;1.40;;
71106;SDS011;58763;47.982;11.516;2022-08-03T05:51:13;2.30;;;1.30;;
71106;SDS011;58763;47.982;11.516;2022-08-03T05:53:39;4.40;;;1.38;;
71106;SDS011;58763;47.982;11.516;2022-08-03T05:56:06;2.95;;;1.30;;
71106;SDS011;58763;47.982;11.516;2022-08-03T05:58:32;3.22;;;1.50;;
71106;SDS011;58763;47.982;11.516;2022-08-03T06:00:57;3.35;;;1.42;;
71106;SDS011;58763;47.982;11.516;2022-08-03T06:03:23;3.80;;;1.50;;
71106;SDS011;58763;47.982;11.516;2022-08-03T06:05:48;2.65;;;1.20;;
71106;SDS011;58763;47.982;11.516;2022-08-03T06:08:14;2.47;;;1.30;;
71106;SDS011;58763;47.982;11.516;2022-08-03T06:10:39;3.40;;;1.70;;
71106;SDS011;58763;47.982;11.516;2022-08-03T06:13:04;2.78;;;1.38;;
71106;SDS011;58763;47.982;11.516;2022-08-03T06:15:30;3.08;;;1.40;;
71106;SDS011;58763;47.982;11.516;2022-08-03T06:17:57;2.45;;;1.27;;
71106;SDS011;58763;47.982;11.516;2022-08-03T06:20:23;2.65;;;1.30;;
71106;SDS011;58763;47.982;11.516;2022-08-03T06:22:48;2.92;;;1.15;;
71106;SDS011;58763;47.982;11.516;2022-08-03T06:25:14;3.22;;;1.27;;
71106;SDS011;58763;47.982;11.516;2022-08-03T06:27:41;2.33;;;1.13;;
71106;SDS011;58763;47.982;11.516;2022-08-03T06:30:07;3.25;;;1.20;;
71106;SDS011;58763;47.982;11.516;2022-08-03T06:32:37;2.88;;;1.40;;
71106;SDS011;58763;47.982;11.516;2022-08-03T06:35:07;3.00;;;1.50;;
71106;SDS011;58763;47.982;11.516;2022-08-03T06:37:55;3.95;;;1.30;;
71106;SDS011;58763;47.982;11.516;2022-08-03T06:40:20;2.85;;;1.30;;
71106;SDS011;58763;47.982;11.516;2022-08-03T06:42:53;2.72;;;1.38;;
71106;SDS011;58763;47.982;11.516;2022-08-03T06:45:18;2.53;;;1.30;;
71106;SDS011;58763;47.982;11.516;2022-08-03T06:47:44;2.83;;;1.33;;
71106;SDS011;58763;47.982;11.516;2022-08-03T06:50:09;2.70;;;1.35;;
71106;SDS011;58763;47.982;11.516;2022-08-03T06:52:35;2.45;;;1.15;;
71106;SDS011;58763;47.982;11.516;2022-08-03T06:55:01;3.08;;;1.30;;
71106;SDS011;58763;47.982;11.516;2022-08-03T06:57:26;2.53;;;1.20;;
71106;SDS011;58763;47.982;11.516;2022-08-03T06:59:51;10.60;;;1.48;;
71106;SDS011;58763;47.982;11.516;2022-08-03T07:02:17;2.63;;;1.10;;
71106;SDS011;58763;47.982;11.516;2022-08-03T07:04:43;2.80;;;1.20;;
71106;SDS011;58763;47.982;11.516;2022-08-03T07:07:09;2.80;;;1.40;;
71106;SDS011;58763;47.982;11.516;2022-08-03T07:09:34;2.83;;;1.20;;
71106;SDS011;58763;47.982;11.516;2022-08-03T07:12:00;3.75;;;1.20;;
71106;SDS011;58763;47.982;11.516;2022-08-03T07:14:26;5.18;;;1.38;;
71106;SDS011;58763;47.982;11.516;2022-08-03T07:16:52;4.03;;;1.25;;
71106;SDS011;58763;47.982;11.516;2022-08-03T07:19:17;3.30;;;1.13;;
71106;SDS011;58763;47.982;11.516;2022-08-03T07:21:43;2.50;;;1.20;;
71106;SDS011;58763;47.982;11.516;2022-08-03T07:24:09;2.00;;;0.90;;
71106;SDS011;58763;47.982;11.516;2022-08-03T07:26:34;2.33;;;1.00;;
71106;SDS011;58763;47.982;11.516;2022-08-03T07:29:00;1.88;;;0.85;;
71106;SDS011;58763;47.982;11.516;2022-08-03T07:31:25;4.20;;;1.08;;
71106;SDS011;58763;47.982;11.516;2022-08-03T07:33:51;2.97;;;0.90;;
71106;SDS011;58763;47.982;11.516;2022-08-03T07:36:17;2.88;;;1.00;;
71106;SDS011;58763;47.982;11.516;2022-08-03T07:38:42;2.53;;;0.93;;
71106;SDS011;58763;47.982;11.516;2022-08-03T07:41:08;1.95;;;0.73;;
71106;SDS011;58763;47.982;11.516;2022-08-03T07:43:33;3.33;;;1.13;;
71106;SDS011;58763;47.982;11.516;2022-08-03T07:45:58;1.88;;;0.80;;
71106;SDS011;58763;47.982;11.516;2022-08-03T07:48:24;2.90;;;1.00;;
71106;SDS011;58763;47.982;11.516;2022-08-03T07:50:49;4.82;;;1.15;;
71106;SDS011;58763;47.982;11.516;2022-08-03T07:53:15;2.03;;;0.85;;
71106;SDS011;58763;47.982;11.516;2022-08-03T07:55:41;2.20;;;0.90;;
71106;SDS011;58763;47.982;11.516;2022-08-03T07:58:10;2.75;;;0.82;;
71106;SDS011;58763;47.982;11.516;2022-08-03T08:00:39;3.88;;;0.80;;
71106;SDS011;58763;47.982;11.516;2022-08-03T08:03:06;2.30;;;0.80;;
71106;SDS011;58763;47.982;11.516;2022-08-03T08:05:31;2.22;;;0.80;;
71106;SDS011;58763;47.982;11.516;2022-08-03T08:07:58;2.28;;;0.60;;
71106;SDS011;58763;47.982;11.516;2022-08-03T08:10:24;1.52;;;0.73;;
71106;SDS011;58763;47.982;11.516;2022-08-03T08:12:49;1.58;;;0.70;;
71106;SDS011;58763;47.982;11.516;2022-08-03T08:15:15;2.58;;;0.60;;
71106;SDS011;58763;47.982;11.516;2022-08-03T08:17:44;2.95;;;0.85;;
71106;SDS011;58763;47.982;11.516;2022-08-03T08:20:13;1.58;;;0.70;;
71106;SDS011;58763;47.982;11.516;2022-08-03T08:22:41;2.78;;;0.88;;
71106;SDS011;58763;47.982;11.516;2022-08-03T08:25:06;2.40;;;0.80;;
71106;SDS011;58763;47.982;11.516;2022-08-03T08:27:32;3.42;;;0.90;;
71106;SDS011;58763;47.982;11.516;2022-08-03T08:29:57;2.28;;;0.90;;
71106;SDS011;58763;47.982;11.516;2022-08-03T08:32:23;3.17;;;0.70;;
71106;SDS011;58763;47.982;11.516;2022-08-03T08:34:48;1.75;;;0.70;;
71106;SDS011;58763;47.982;11.516;2022-08-03T08:37:14;1.70;;;0.70;;
71106;SDS011;58763;47.982;11.516;2022-08-03T08:39:39;2.55;;;0.88;;
71106;SDS011;58763;47.982;11.516;2022-08-03T08:42:04;1.50;;;0.60;;
71106;SDS011;58763;47.982;11.516;2022-08-03T08:44:30;2.35;;;0.80;;
71106;SDS011;58763;47.982;11.516;2022-08-03T08:46:55;1.25;;;0.57;;
71106;SDS011;58763;47.982;11.516;2022-08-03T08:49:25;2.03;;;0.90;;
71106;SDS011;58763;47.982;11.516;2022-08-03T08:51:52;2.28;;;0.70;;
71106;SDS011;58763;47.982;11.516;2022-08-03T08:54:19;2.22;;;0.80;;
71106;SDS011;58763;47.982;11.516;2022-08-03T08:56:47;1.45;;;0.63;;
71106;SDS011;58763;47.982;11.516;2022-08-03T08:59:14;1.88;;;0.70;;
71106;SDS011;58763;47.982;11.516;2022-08-03T09:01:41;1.73;;;0.70;;
71106;SDS011;58763;47.982;11.516;2022-08-03T09:04:07;2.33;;;0.70;;
71106;SDS011;58763;47.982;11.516;2022-08-03T09:06:33;1.58;;;0.60;;
71106;SDS011;58763;47.982;11.516;2022-08-03T09:08:59;1.60;;;0.68;;
71106;SDS011;58763;47.982;11.516;2022-08-03T09:11:25;2.15;;;0.70;;
71106;SDS011;58763;47.982;11.516;2022-08-03T09:13:50;1.30;;;0.70;;
71106;SDS011;58763;47.982;11.516;2022-08-03T09:16:17;1.92;;;0.70;;
71106;SDS011;58763;47.982;11.516;2022-08-03T09:18:46;2.80;;;0.82;;
71106;SDS011;58763;47.982;11.516;2022-08-03T09:21:20;1.85;;;0.80;;
71106;SDS011;58763;47.982;11.516;2022-08-03T09:23:48;1.90;;;0.75;;
71106;SDS011;58763;47.982;11.516;2022-08-03T09:26:34;2.78;;;0.75;;
71106;SDS011;58763;47.982;11.516;2022-08-03T09:29:02;3.17;;;0.73;;
71106;SDS011;58763;47.982;11.516;2022-08-03T09:31:39;1.90;;;0.70;;
71106;SDS011;58763;47.982;11.516;2022-08-03T09:34:11;1.45;;;0.60;;
71106;SDS011;58763;47.982;11.516;2022-08-03T09:36:42;1.38;;;0.60;;
71106;SDS011;58763;47.982;11.516;2022-08-03T09:39:15;2.78;;;0.70;;
71106;SDS011;58763;47.982;11.516;2022-08-03T09:41:45;2.53;;;0.63;;
71106;SDS011;58763;47.982;11.516;2022-08-03T09:44:13;1.75;;;0.50;;
71106;SDS011;58763;47.982;11.516;2022-08-03T09:46:52;1.27;;;0.57;;
71106;SDS011;58763;47.982;11.516;2022-08-03T09:49:20;1.98;;;0.60;;
71106;SDS011;58763;47.982;11.516;2022-08-03T09:51:45;2.30;;;0.70;;
71106;SDS011;58763;47.982;11.516;2022-08-03T09:54:11;2.63;;;0.60;;
71106;SDS011;58763;47.982;11.516;2022-08-03T09:56:41;1.73;;;0.70;;
71106;SDS011;58763;47.982;11.516;2022-08-03T09:59:08;1.52;;;0.63;;
71106;SDS011;58763;47.982;11.516;2022-08-03T10:01:35;1.40;;;0.43;;
71106;SDS011;58763;47.982;11.516;2022-08-03T10:04:03;3.53;;;0.80;;
71106;SDS011;58763;47.982;11.516;2022-08-03T10:06:28;2.33;;;0.80;;
71106;SDS011;58763;47.982;11.516;2022-08-03T10:09:13;3.22;;;0.88;;
71106;SDS011;58763;47.982;11.516;2022-08-03T10:11:40;4.00;;;0.73;;
71106;SDS011;58763;47.982;11.516;2022-08-03T10:14:07;2.03;;;0.70;;
71106;SDS011;58763;47.982;11.516;2022-08-03T10:16:38;1.30;;;0.50;;
71106;SDS011;58763;47.982;11.516;2022-08-03T10:21:32;2.00;;;0.50;;
71106;SDS011;58763;47.982;11.516;2022-08-03T10:24:01;1.10;;;0.50;;
71106;SDS011;58763;47.982;11.516;2022-08-03T10:26:28;1.80;;;0.70;;
71106;SDS011;58763;47.982;11.516;2022-08-03T10:28:56;1.25;;;0.63;;
71106;SDS011;58763;47.982;11.516;2022-08-03T10:31:24;1.67;;;0.60;;
71106;SDS011;58763;47.982;11.516;2022-08-03T10:33:53;1.95;;;0.80;;
71106;SDS011;58763;47.982;11.516;2022-08-03T10:36:23;2.38;;;0.60;;
71106;SDS011;58763;47.982;11.516;2022-08-03T10:38:51;4.00;;;0.50;;
71106;SDS011;58763;47.982;11.516;2022-08-03T10:41:21;3.85;;;0.65;;
71106;SDS011;58763;47.982;11.516;2022-08-03T10:43:51;1.50;;;0.60;;
71106;SDS011;58763;47.982;11.516;2022-08-03T10:46:22;1.77;;;0.63;;
71106;SDS011;58763;47.982;11.516;2022-08-03T10:48:48;2.22;;;0.63;;
71106;SDS011;58763;47.982;11.516;2022-08-03T10:51:19;1.40;;;0.60;;
71106;SDS011;58763;47.982;11.516;2022-08-03T10:53:45;1.45;;;0.60;;
71106;SDS011;58763;47.982;11.516;2022-08-03T10:56:54;2.85;;;0.70;;
71106;SDS011;58763;47.982;11.516;2022-08-03T10:59:19;3.30;;;0.70;;
71106;SDS011;58763;47.982;11.516;2022-08-03T11:02:10;3.10;;;0.70;;
71106;SDS011;58763;47.982;11.516;2022-08-03T11:04:39;1.52;;;0.60;;
71106;SDS011;58763;47.982;11.516;2022-08-03T11:09:42;1.15;;;0.45;;
71106;SDS011;58763;47.982;11.516;2022-08-03T11:12:22;1.60;;;0.50;;
71106;SDS011;58763;47.982;11.516;2022-08-03T11:14:49;3.03;;;0.60;;
71106;SDS011;58763;47.982;11.516;2022-08-03T11:17:15;2.35;;;0.50;;
71106;SDS011;58763;47.982;11.516;2022-08-03T11:19:45;1.20;;;0.45;;
71106;SDS011;58763;47.982;11.516;2022-08-03T11:22:11;1.88;;;0.55;;
71106;SDS011;58763;47.982;11.516;2022-08-03T11:35:12;1.20;;;0.63;;
71106;SDS011;58763;47.982;11.516;2022-08-03T11:48:24;1.05;;;0.40;;
71106;SDS011;58763;47.982;11.516;2022-08-03T11:50:51;3.27;;;0.97;;
71106;SDS011;58763;47.982;11.516;2022-08-03T11:53:17;1.48;;;0.50;;
71106;SDS011;58763;47.982;11.516;2022-08-03T11:55:43;1.55;;;0.50;;
71106;SDS011;58763;47.982;11.516;2022-08-03T11:58:16;5.93;;;0.60;;
71106;SDS011;58763;47.982;11.516;2022-08-03T12:00:43;1.33;;;0.45;;
71106;SDS011;58763;47.982;11.516;2022-08-03T12:03:09;2.25;;;0.52;;
71106;SDS011;58763;47.982;11.516;2022-08-03T12:05:47;1.40;;;0.50;;
71106;SDS011;58763;47.982;11.516;2022-08-03T12:08:16;1.25;;;0.43;;
71106;SDS011;58763;47.982;11.516;2022-08-03T12:10:55;0.95;;;0.40;;
71106;SDS011;58763;47.982;11.516;2022-08-03T12:13:21;1.35;;;0.50;;
71106;SDS011;58763;47.982;11.516;2022-08-03T12:15:55;1.33;;;0.43;;
71106;SDS011;58763;47.982;11.516;2022-08-03T12:18:22;2.60;;;0.60;;
71106;SDS011;58763;47.982;11.516;2022-08-03T12:20:48;2.85;;;0.80;;
71106;SDS011;58763;47.982;11.516;2022-08-03T12:23:16;1.02;;;0.43;;
71106;SDS011;58763;47.982;11.516;2022-08-03T12:25:42;1.70;;;0.52;;
71106;SDS011;58763;47.982;11.516;2022-08-03T12:28:10;1.67;;;0.50;;
71106;SDS011;58763;47.982;11.516;2022-08-03T12:30:44;1.30;;;0.50;;
71106;SDS011;58763;47.982;11.516;2022-08-03T12:33:13;1.60;;;0.52;;
71106;SDS011;58763;47.982;11.516;2022-08-03T12:36:07;1.15;;;0.45;;
71106;SDS011;58763;47.982;11.516;2022-08-03T12:38:34;2.20;;;0.60;;
71106;SDS011;58763;47.982;11.516;2022-08-03T12:41:04;2.90;;;0.40;;
71106;SDS011;58763;47.982;11.516;2022-08-03T12:43:32;1.08;;;0.38;;
71106;SDS011;58763;47.982;11.516;2022-08-03T12:48:34;1.90;;;0.50;;
71106;SDS011;58763;47.982;11.516;2022-08-03T12:51:09;1.90;;;0.55;;
71106;SDS011;58763;47.982;11.516;2022-08-03T12:53:35;1.40;;;0.50;;
71106;SDS011;58763;47.982;11.516;2022-08-03T12:56:01;1.42;;;0.50;;
71106;SDS011;58763;47.982;11.516;2022-08-03T12:58:32;2.15;;;0.40;;
71106;SDS011;58763;47.982;11.516;2022-08-03T13:00:59;2.33;;;0.60;;
71106;SDS011;58763;47.982;11.516;2022-08-03T13:03:25;1.15;;;0.40;;
71106;SDS011;58763;47.982;11.516;2022-08-03T13:05:50;1.35;;;0.55;;
71106;SDS011;58763;47.982;11.516;2022-08-03T13:08:19;1.27;;;0.47;;
71106;SDS011;58763;47.982;11.516;2022-08-03T13:10:46;2.13;;;0.50;;
71106;SDS011;58763;47.982;11.516;2022-08-03T13:13:12;2.20;;;0.57;;
71106;SDS011;58763;47.982;11.516;2022-08-03T13:15:38;1.85;;;0.60;;
71106;SDS011;58763;47.982;11.516;2022-08-03T13:18:04;1.88;;;0.60;;
71106;SDS011;58763;47.982;11.516;2022-08-03T13:20:29;0.95;;;0.40;;
71106;SDS011;58763;47.982;11.516;2022-08-03T13:22:55;2.03;;;0.50;;
71106;SDS011;58763;47.982;11.516;2022-08-03T13:25:21;1.83;;;0.60;;
71106;SDS011;58763;47.982;11.516;2022-08-03T13:27:46;1.73;;;0.50;;
71106;SDS011;58763;47.982;11.516;2022-08-03T13:30:12;2.40;;;0.50;;
71106;SDS011;58763;47.982;11.516;2022-08-03T13:32:38;2.03;;;0.50;;
71106;SDS011;58763;47.982;11.516;2022-08-03T13:35:05;2.92;;;0.70;;
71106;SDS011;58763;47.982;11.516;2022-08-03T13:37:31;2.03;;;0.50;;
71106;SDS011;58763;47.982;11.516;2022-08-03T13:39:57;3.42;;;0.55;;
71106;SDS011;58763;47.982;11.516;2022-08-03T13:42:24;1.52;;;0.32;;
71106;SDS011;58763;47.982;11.516;2022-08-03T13:44:49;1.35;;;0.55;;
71106;SDS011;58763;47.982;11.516;2022-08-03T13:47:14;1.58;;;0.50;;
71106;SDS011;58763;47.982;11.516;2022-08-03T13:49:40;2.28;;;0.50;;
71106;SDS011;58763;47.982;11.516;2022-08-03T13:52:06;3.03;;;0.60;;
71106;SDS011;58763;47.982;11.516;2022-08-03T13:54:31;1.23;;;0.50;;
71106;SDS011;58763;47.982;11.516;2022-08-03T13:56:58;2.50;;;0.50;;
71106;SDS011;58763;47.982;11.516;2022-08-03T13:59:24;1.70;;;0.50;;
71106;SDS011;58763;47.982;11.516;2022-08-03T14:01:50;2.40;;;0.50;;
71106;SDS011;58763;47.982;11.516;2022-08-03T14:04:16;3.13;;;0.60;;
71106;SDS011;58763;47.982;11.516;2022-08-03T14:06:42;3.05;;;0.60;;
71106;SDS011;58763;47.982;11.516;2022-08-03T14:09:11;1.20;;;0.40;;
71106;SDS011;58763;47.982;11.516;2022-08-03T14:11:41;1.60;;;0.57;;
71106;SDS011;58763;47.982;11.516;2022-08-03T14:14:07;1.38;;;0.57;;
71106;SDS011;58763;47.982;11.516;2022-08-03T14:16:34;1.45;;;0.50;;
71106;SDS011;58763;47.982;11.516;2022-08-03T14:19:00;1.67;;;0.52;;
71106;SDS011;58763;47.982;11.516;2022-08-03T14:21:25;1.75;;;0.60;;
71106;SDS011;58763;47.982;11.516;2022-08-03T14:23:51;1.85;;;0.40;;
71106;SDS011;58763;47.982;11.516;2022-08-03T14:26:16;1.52;;;0.52;;
71106;SDS011;58763;47.982;11.516;2022-08-03T14:28:44;2.03;;;0.50;;
71106;SDS011;58763;47.982;11.516;2022-08-03T14:31:10;1.55;;;0.30;;
71106;SDS011;58763;47.982;11.516;2022-08-03T14:33:36;0.90;;;0.30;;
71106;SDS011;58763;47.982;11.516;2022-08-03T14:36:01;1.13;;;0.40;;
71106;SDS011;58763;47.982;11.516;2022-08-03T14:38:27;1.23;;;0.40;;
71106;SDS011;58763;47.982;11.516;2022-08-03T14:40:52;1.88;;;0.50;;
71106;SDS011;58763;47.982;11.516;2022-08-03T14:43:17;2.53;;;0.40;;
71106;SDS011;58763;47.982;11.516;2022-08-03T14:45:45;1.20;;;0.40;;
71106;SDS011;58763;47.982;11.516;2022-08-03T14:48:11;1.27;;;0.50;;
71106;SDS011;58763;47.982;11.516;2022-08-03T14:50:37;0.98;;;0.45;;
71106;SDS011;58763;47.982;11.516;2022-08-03T14:53:02;1.92;;;0.30;;
71106;SDS011;58763;47.982;11.516;2022-08-03T14:55:28;1.50;;;0.57;;
71106;SDS011;58763;47.982;11.516;2022-08-03T14:57:53;2.13;;;0.30;;
71106;SDS011;58763;47.982;11.516;2022-08-03T15:00:18;0.65;;;0.30;;
71106;SDS011;58763;47.982;11.516;2022-08-03T15:02:44;1.45;;;0.50;;
71106;SDS011;58763;47.982;11.516;2022-08-03T15:05:09;1.65;;;0.43;;
71106;SDS011;58763;47.982;11.516;2022-08-03T15:07:37;1.95;;;0.45;;
71106;SDS011;58763;47.982;11.516;2022-08-03T15:10:02;1.20;;;0.40;;
71106;SDS011;58763;47.982;11.516;2022-08-03T15:12:28;1.92;;;0.50;;
71106;SDS011;58763;47.982;11.516;2022-08-03T15:14:56;1.10;;;0.30;;
71106;SDS011;58763;47.982;11.516;2022-08-03T15:17:22;2.35;;;0.40;;
71106;SDS011;58763;47.982;11.516;2022-08-03T15:19:49;3.30;;;0.40;;